createdAt,value
2018-07-21T00:02:16.077Z,6.40
2018-07-21T00:04:44.841Z,5.73
2018-07-21T00:07:13.516Z,5.90
2018-07-21T00:09:41.912Z,6.37
2018-07-21T00:12:10.503Z,5.93
2018-07-21T00:14:39.066Z,5.93
2018-07-21T00:17:08.345Z,6.03
2018-07-21T00:19:37.074Z,6.77
2018-07-21T00:22:05.676Z,6.73
2018-07-21T00:24:33.900Z,6.23
2018-07-21T00:27:02.463Z,6.73
2018-07-21T00:29:30.958Z,5.80
2018-07-21T00:32:00.411Z,6.33
2018-07-21T00:34:29.000Z,6.27
2018-07-21T00:36:57.632Z,6.07
2018-07-21T00:39:26.166Z,5.93
2018-07-21T00:41:54.351Z,11.67
2018-07-21T00:44:22.883Z,9.80
2018-07-21T00:46:51.711Z,8.50
2018-07-21T00:49:20.505Z,7.07
2018-07-21T00:51:49.117Z,6.57
2018-07-21T00:54:17.758Z,7.17
2018-07-21T00:56:46.283Z,6.20
2018-07-21T00:59:15.041Z,6.27
2018-07-21T01:01:43.573Z,10.00
2018-07-21T01:04:12.104Z,9.77
2018-07-21T01:06:40.679Z,6.77
2018-07-21T01:09:10.370Z,5.67
2018-07-21T01:11:39.608Z,5.93
2018-07-21T01:14:08.505Z,5.07
2018-07-21T01:16:37.266Z,6.37
2018-07-21T01:19:05.812Z,9.40
2018-07-21T01:21:34.495Z,5.37
2018-07-21T01:24:03.328Z,5.97
2018-07-21T01:26:31.890Z,6.10
2018-07-21T01:29:00.436Z,5.60
2018-07-21T01:31:29.011Z,5.40
2018-07-21T01:33:57.924Z,7.20
2018-07-21T01:36:26.597Z,6.00
2018-07-21T01:38:55.484Z,6.03
2018-07-21T01:41:23.945Z,6.13
2018-07-21T01:43:52.524Z,5.93
2018-07-21T01:46:21.130Z,6.63
2018-07-21T01:48:49.761Z,6.00
2018-07-21T01:51:18.386Z,5.87
2018-07-21T01:53:47.006Z,6.20
2018-07-21T01:56:15.844Z,6.93
2018-07-21T01:58:44.444Z,6.73
2018-07-21T02:01:13.076Z,5.67
2018-07-21T02:03:46.782Z,6.37
2018-07-21T02:06:15.354Z,6.13
2018-07-21T02:08:44.485Z,6.43
2018-07-21T02:11:13.323Z,7.40
2018-07-21T02:13:42.345Z,5.93
2018-07-21T02:16:11.765Z,8.80
2018-07-21T02:18:40.267Z,7.07
2018-07-21T02:21:09.791Z,8.33
2018-07-21T02:23:38.429Z,6.50
2018-07-21T02:26:07.626Z,6.60
2018-07-21T02:28:37.347Z,6.10
2018-07-21T02:31:05.917Z,4.83
2018-07-21T02:33:34.452Z,5.77
2018-07-21T02:36:03.240Z,5.90
2018-07-21T02:38:31.728Z,9.50
2018-07-21T02:41:00.567Z,5.77
2018-07-21T02:43:29.094Z,5.73
2018-07-21T02:45:57.712Z,5.70
2018-07-21T02:48:26.267Z,6.63
2018-07-21T02:50:54.808Z,5.97
2018-07-21T02:53:23.375Z,5.83
2018-07-21T02:55:52.123Z,5.80
2018-07-21T02:58:20.897Z,6.40
2018-07-21T03:00:49.099Z,6.27
2018-07-21T03:03:17.954Z,8.73
2018-07-21T03:05:46.477Z,7.03
2018-07-21T03:08:15.144Z,6.23
2018-07-21T03:10:43.698Z,7.20
2018-07-21T03:13:12.472Z,6.00
2018-07-21T03:15:41.043Z,7.73
2018-07-21T03:18:09.591Z,6.17
2018-07-21T03:20:38.408Z,7.80
2018-07-21T03:23:07.247Z,8.33
2018-07-21T03:25:36.395Z,6.33
2018-07-21T03:28:05.207Z,5.80
2018-07-21T03:30:33.812Z,6.37
2018-07-21T03:33:02.367Z,8.03
2018-07-21T03:35:31.150Z,7.17
2018-07-21T03:38:00.234Z,6.83
2018-07-21T03:40:29.264Z,6.40
2018-07-21T03:42:58.171Z,6.00
2018-07-21T03:45:27.216Z,7.13
2018-07-21T03:47:56.068Z,7.10
2018-07-21T03:50:24.625Z,6.63
2018-07-21T03:52:53.140Z,7.33
2018-07-21T03:55:21.723Z,6.63
2018-07-21T03:57:50.481Z,9.73
2018-07-21T04:00:18.986Z,6.13
2018-07-21T04:02:47.607Z,8.80
2018-07-21T04:05:16.571Z,7.70
2018-07-21T04:07:45.101Z,6.73
2018-07-21T04:10:13.913Z,6.10
2018-07-21T04:12:42.464Z,6.63
2018-07-21T04:15:11.096Z,6.13
2018-07-21T04:17:39.638Z,6.37
2018-07-21T04:20:09.035Z,8.20
2018-07-21T04:22:37.547Z,5.80
2018-07-21T04:25:06.265Z,9.70
2018-07-21T04:27:34.885Z,6.50
2018-07-21T04:30:03.783Z,6.20
2018-07-21T04:32:32.335Z,6.33
2018-07-21T04:35:00.843Z,5.27
2018-07-21T04:37:29.595Z,6.40
2018-07-21T04:39:58.215Z,6.13
2018-07-21T04:42:26.763Z,7.90
2018-07-21T04:44:55.682Z,5.83
2018-07-21T04:47:24.385Z,6.30
2018-07-21T04:49:53.916Z,10.47
2018-07-21T04:52:22.602Z,6.10
2018-07-21T04:54:51.650Z,6.10
2018-07-21T04:57:21.495Z,6.83
2018-07-21T04:59:50.063Z,5.73
2018-07-21T05:02:18.888Z,6.20
2018-07-21T05:04:47.419Z,6.13
2018-07-21T05:07:15.972Z,6.13
2018-07-21T05:09:44.298Z,6.40
2018-07-21T05:12:12.861Z,6.03
2018-07-21T05:14:41.434Z,6.00
2018-07-21T05:17:10.067Z,7.30
2018-07-21T05:19:38.659Z,6.27
2018-07-21T05:22:07.429Z,6.13
2018-07-21T05:24:36.426Z,6.60
2018-07-21T05:27:04.914Z,6.70
2018-07-21T05:29:33.452Z,8.80
2018-07-21T05:32:02.377Z,7.47
2018-07-21T05:34:30.963Z,6.90
2018-07-21T05:36:59.544Z,6.07
2018-07-21T05:39:28.043Z,8.40
2018-07-21T05:41:56.582Z,12.77
2018-07-21T05:44:26.066Z,6.53
2018-07-21T05:46:54.699Z,6.80
2018-07-21T05:49:23.386Z,7.37
2018-07-21T05:51:52.229Z,7.97
2018-07-21T05:54:21.335Z,7.63
2018-07-21T05:56:50.114Z,6.17
2018-07-21T05:59:19.009Z,7.30
2018-07-21T06:01:48.195Z,7.13
2018-07-21T06:04:17.055Z,7.07
2018-07-21T06:06:45.577Z,7.07
2018-07-21T06:09:14.232Z,7.43
2018-07-21T06:11:42.763Z,7.47
2018-07-21T06:14:11.758Z,8.00
2018-07-21T06:16:40.765Z,8.10
2018-07-21T06:19:09.339Z,7.40
2018-07-21T06:21:38.191Z,7.43
2018-07-21T06:24:06.891Z,9.87
2018-07-21T06:26:35.803Z,9.63
2018-07-21T06:29:04.347Z,8.40
2018-07-21T06:31:32.927Z,7.50
2018-07-21T06:34:01.475Z,7.87
2018-07-21T06:36:30.875Z,8.73
2018-07-21T06:38:59.547Z,8.53
2018-07-21T06:41:28.727Z,8.90
2018-07-21T06:43:57.378Z,9.27
2018-07-21T06:46:25.947Z,7.97
2018-07-21T06:48:54.467Z,8.77
2018-07-21T06:51:23.572Z,8.33
2018-07-21T06:53:52.422Z,12.50
2018-07-21T06:56:20.941Z,8.63
2018-07-21T06:58:49.496Z,7.93
2018-07-21T07:01:18.118Z,8.17
2018-07-21T07:03:46.665Z,7.83
2018-07-21T07:06:15.715Z,7.97
2018-07-21T07:08:44.651Z,10.07
2018-07-21T07:11:13.971Z,7.57
2018-07-21T07:13:42.490Z,7.50
2018-07-21T07:16:11.549Z,6.90
2018-07-21T07:18:40.222Z,6.70
2018-07-21T07:21:08.822Z,6.87
2018-07-21T07:23:37.473Z,6.50
2018-07-21T07:26:06.226Z,6.97
2018-07-21T07:28:36.823Z,7.27
2018-07-21T07:31:05.718Z,7.97
2018-07-21T07:33:35.416Z,7.33
2018-07-21T07:36:04.524Z,7.57
2018-07-21T07:38:34.001Z,7.90
2018-07-21T07:41:02.907Z,7.47
2018-07-21T07:43:32.020Z,7.13
2018-07-21T07:46:01.136Z,6.70
2018-07-21T07:48:30.404Z,6.60
2018-07-21T07:50:59.330Z,7.27
2018-07-21T07:53:28.213Z,11.67
2018-07-21T07:55:56.902Z,7.07
2018-07-21T07:58:25.829Z,7.67
2018-07-21T08:00:54.595Z,6.73
2018-07-21T08:03:23.643Z,7.10
2018-07-21T08:05:52.540Z,7.10
2018-07-21T08:08:21.046Z,7.83
2018-07-21T08:10:49.891Z,7.63
2018-07-21T08:13:18.528Z,9.47
2018-07-21T08:15:47.110Z,7.27
2018-07-21T08:18:15.698Z,8.00
2018-07-21T08:20:44.655Z,7.10
2018-07-21T08:23:13.232Z,7.53
2018-07-21T08:25:42.196Z,9.23
2018-07-21T08:28:11.079Z,6.97
2018-07-21T08:30:41.933Z,7.03
2018-07-21T08:33:10.500Z,8.13
2018-07-21T08:35:39.295Z,8.47
2018-07-21T08:38:08.901Z,10.87
2018-07-21T08:40:38.379Z,8.83
2018-07-21T08:43:07.786Z,7.07
2018-07-21T08:45:36.942Z,7.43
2018-07-21T08:48:06.700Z,8.57
2018-07-21T08:50:36.430Z,8.93
2018-07-21T08:53:06.288Z,7.87
2018-07-21T08:55:35.110Z,7.50
2018-07-21T08:58:03.803Z,8.07
2018-07-21T09:00:32.505Z,8.07
2018-07-21T09:03:01.497Z,9.43
2018-07-21T09:05:30.556Z,8.33
2018-07-21T09:08:01.407Z,12.87
2018-07-21T09:10:30.723Z,8.33
2018-07-21T09:12:59.705Z,8.43
2018-07-21T09:15:28.642Z,7.53
2018-07-21T09:17:58.523Z,8.80
2018-07-21T09:20:27.793Z,7.57
2018-07-21T09:22:56.412Z,9.97
2018-07-21T09:25:25.047Z,8.20
2018-07-21T09:27:53.844Z,6.73
2018-07-21T09:30:23.587Z,6.73
2018-07-21T09:32:53.437Z,7.40
2018-07-21T09:35:22.544Z,6.07
2018-07-21T09:37:51.176Z,6.67
2018-07-21T09:40:19.767Z,7.13
2018-07-21T09:42:49.236Z,6.93
2018-07-21T09:45:18.298Z,7.97
2018-07-21T09:47:47.633Z,6.57
2018-07-21T09:50:16.221Z,7.93
2018-07-21T09:52:45.737Z,7.10
2018-07-21T09:55:14.884Z,7.13
2018-07-21T09:57:43.521Z,7.77
2018-07-21T10:00:14.294Z,7.43
2018-07-21T10:02:43.243Z,7.47
2018-07-21T10:05:12.353Z,7.30
2018-07-21T10:07:41.258Z,7.80
2018-07-21T10:10:09.816Z,7.43
2018-07-21T10:12:38.955Z,7.57
2018-07-21T10:15:07.578Z,6.87
2018-07-21T10:17:36.575Z,6.93
2018-07-21T10:20:05.834Z,6.73
2018-07-21T10:22:35.706Z,6.57
2018-07-21T10:25:09.798Z,7.23
2018-07-21T10:27:43.765Z,6.20
2018-07-21T10:30:12.361Z,6.27
2018-07-21T10:32:40.907Z,6.17
2018-07-21T10:35:09.615Z,6.03
2018-07-21T10:37:38.558Z,6.50
2018-07-21T10:40:08.797Z,5.93
2018-07-21T10:42:37.616Z,6.77
2018-07-21T10:45:06.200Z,6.13
2018-07-21T10:47:34.772Z,8.10
2018-07-21T10:50:03.594Z,6.27
2018-07-21T10:52:32.241Z,6.10
2018-07-21T10:55:01.254Z,6.80
2018-07-21T10:57:30.443Z,6.50
2018-07-21T10:59:59.002Z,6.57
2018-07-21T11:02:28.370Z,7.30
2018-07-21T11:04:56.922Z,6.97
2018-07-21T11:07:26.262Z,7.40
2018-07-21T11:09:55.006Z,7.07
2018-07-21T11:12:24.075Z,7.23
2018-07-21T11:14:52.956Z,7.63
2018-07-21T11:17:21.758Z,8.20
2018-07-21T11:19:50.496Z,8.23
2018-07-21T11:22:19.038Z,8.80
2018-07-21T11:24:47.779Z,8.17
2018-07-21T11:27:16.437Z,7.83
2018-07-21T11:29:45.036Z,7.30
2018-07-21T11:32:13.753Z,8.03
2018-07-21T11:34:42.732Z,8.13
2018-07-21T11:37:12.703Z,7.57
2018-07-21T11:39:41.288Z,7.27
2018-07-21T11:42:09.998Z,8.33
2018-07-21T11:44:38.681Z,7.57
2018-07-21T11:47:07.658Z,8.70
2018-07-21T11:49:36.686Z,9.23
2018-07-21T11:52:06.148Z,10.53
2018-07-21T11:54:34.980Z,10.80
2018-07-21T11:57:03.533Z,9.87
2018-07-21T11:59:33.637Z,9.93
2018-07-21T12:02:02.240Z,10.27
2018-07-21T12:04:31.526Z,10.47
2018-07-21T12:07:00.052Z,9.27
2018-07-21T12:09:28.926Z,8.80
2018-07-21T12:11:57.756Z,8.73
2018-07-21T12:14:26.359Z,8.37
2018-07-21T12:16:54.955Z,8.87
2018-07-21T12:19:23.678Z,8.63
2018-07-21T12:21:52.323Z,8.87
2018-07-21T12:24:21.104Z,8.93
2018-07-21T12:26:49.716Z,8.30
2018-07-21T12:29:19.241Z,7.93
2018-07-21T12:31:48.013Z,7.97
2018-07-21T12:34:16.639Z,7.80
2018-07-21T12:36:45.900Z,7.03
2018-07-21T12:39:14.518Z,7.07
2018-07-21T12:41:43.346Z,7.63
2018-07-21T12:44:12.572Z,6.67
2018-07-21T12:46:41.940Z,6.00
2018-07-21T12:49:10.693Z,6.50
2018-07-21T12:51:39.267Z,5.93
2018-07-21T12:54:08.549Z,6.50
2018-07-21T12:56:37.333Z,6.57
2018-07-21T12:59:06.559Z,7.57
2018-07-21T13:01:35.423Z,6.37
2018-07-21T13:04:04.610Z,6.33
2018-07-21T13:06:33.692Z,6.27
2018-07-21T13:09:02.682Z,7.03
2018-07-21T13:11:31.405Z,6.97
2018-07-21T13:14:00.217Z,5.93
2018-07-21T13:16:28.434Z,6.27
2018-07-21T13:18:57.003Z,6.43
2018-07-21T13:21:25.902Z,6.80
2018-07-21T13:23:55.422Z,6.17
2018-07-21T13:26:24.007Z,7.00
2018-07-21T13:28:53.003Z,6.33
2018-07-21T13:31:21.743Z,6.30
2018-07-21T13:33:50.545Z,5.67
2018-07-21T13:36:19.164Z,6.10
2018-07-21T13:38:48.649Z,6.47
2018-07-21T13:41:17.358Z,6.23
2018-07-21T13:43:47.561Z,6.53
2018-07-21T13:46:16.215Z,6.67
2018-07-21T13:48:44.479Z,6.53
2018-07-21T13:51:13.050Z,5.93
2018-07-21T13:53:41.623Z,7.20
2018-07-21T13:56:10.186Z,6.33
2018-07-21T13:58:38.711Z,8.70
2018-07-21T14:01:08.444Z,6.30
2018-07-21T14:03:37.060Z,8.10
2018-07-21T14:06:05.751Z,8.00
2018-07-21T14:08:34.293Z,7.10
2018-07-21T14:11:03.710Z,7.10
2018-07-21T14:13:32.258Z,7.43
2018-07-21T14:16:00.801Z,8.43
2018-07-21T14:18:29.522Z,7.00
2018-07-21T14:20:58.164Z,7.93
2018-07-21T14:23:26.749Z,7.20
2018-07-21T14:25:56.476Z,7.37
2018-07-21T14:28:25.107Z,7.20
2018-07-21T14:30:53.744Z,6.93
2018-07-21T14:33:22.277Z,8.10
2018-07-21T14:35:50.920Z,7.50
2018-07-21T14:38:19.725Z,6.77
2018-07-21T14:40:48.896Z,7.10
2018-07-21T14:43:17.431Z,6.87
2018-07-21T14:45:46.020Z,7.30
2018-07-21T14:48:14.919Z,6.90
2018-07-21T14:50:43.599Z,7.37
2018-07-21T14:53:12.918Z,7.03
2018-07-21T14:55:41.671Z,7.43
2018-07-21T14:58:10.319Z,7.17
2018-07-21T15:00:38.821Z,7.87
2018-07-21T15:03:07.843Z,9.70
2018-07-21T15:05:36.427Z,7.50
2018-07-21T15:08:05.011Z,8.63
2018-07-21T15:10:33.862Z,7.80
2018-07-21T15:13:02.463Z,7.80
2018-07-21T15:15:31.007Z,7.83
2018-07-21T15:18:00.289Z,6.23
2018-07-21T15:20:28.908Z,7.43
2018-07-21T15:22:57.422Z,7.37
2018-07-21T15:25:25.667Z,6.97
2018-07-21T15:27:54.171Z,7.43
2018-07-21T15:30:23.156Z,7.93
2018-07-21T15:32:52.992Z,7.90
2018-07-21T15:35:21.545Z,7.20
2018-07-21T15:37:50.445Z,7.80
2018-07-21T15:40:19.013Z,8.07
2018-07-21T15:42:47.739Z,8.57
2018-07-21T15:45:16.634Z,6.87
2018-07-21T15:47:45.579Z,6.60
2018-07-21T15:50:14.832Z,6.87
2018-07-21T15:52:43.383Z,6.73
2018-07-21T15:55:11.973Z,7.03
2018-07-21T15:57:40.592Z,7.10
2018-07-21T16:00:09.137Z,8.20
2018-07-21T16:02:37.812Z,7.30
2018-07-21T16:05:06.835Z,8.10
2018-07-21T16:07:35.307Z,7.17
2018-07-21T16:10:04.502Z,7.30
2018-07-21T16:12:33.263Z,7.70
2018-07-21T16:15:03.865Z,7.23
2018-07-21T16:17:30.428Z,6.90
2018-07-21T16:19:59.139Z,8.20
2018-07-21T16:22:27.834Z,7.00
2018-07-21T16:24:56.886Z,6.67
2018-07-21T16:27:25.481Z,7.50
2018-07-21T16:29:54.444Z,7.73
2018-07-21T16:32:23.382Z,7.07
2018-07-21T16:34:52.989Z,7.97
2018-07-21T16:37:22.089Z,7.57
2018-07-21T16:39:50.732Z,7.53
2018-07-21T16:42:19.356Z,6.80
2018-07-21T16:44:48.470Z,8.20
2018-07-21T16:47:16.992Z,8.13
2018-07-21T16:49:45.535Z,8.13
2018-07-21T16:52:14.138Z,8.73
2018-07-21T16:54:42.599Z,8.30
2018-07-21T16:57:10.820Z,8.60
2018-07-21T16:59:39.482Z,8.83
2018-07-21T17:02:09.016Z,8.70
2018-07-21T17:04:37.636Z,9.00
2018-07-21T17:07:06.405Z,9.37
2018-07-21T17:09:35.100Z,7.83
2018-07-21T17:12:03.769Z,8.87
2018-07-21T17:14:32.599Z,9.67
2018-07-21T17:17:01.480Z,9.07
2018-07-21T17:19:29.998Z,9.40
2018-07-21T17:21:58.844Z,10.13
2018-07-21T17:24:27.376Z,10.27
2018-07-21T17:26:55.930Z,9.03
2018-07-21T17:29:25.621Z,11.27
2018-07-21T17:31:54.059Z,9.30
2018-07-21T17:34:22.640Z,9.60
2018-07-21T17:36:51.296Z,10.00
2018-07-21T17:39:19.901Z,9.43
2018-07-21T17:41:48.459Z,10.13
2018-07-21T17:44:17.260Z,9.90
2018-07-21T17:46:45.950Z,8.50
2018-07-21T17:49:14.509Z,9.03
2018-07-21T17:51:44.071Z,8.57
2018-07-21T17:54:13.183Z,8.37
2018-07-21T17:56:42.059Z,10.97
2018-07-21T17:59:11.142Z,8.93
2018-07-21T18:01:39.808Z,8.30
2018-07-21T18:04:08.367Z,8.63
2018-07-21T18:06:36.920Z,8.10
2018-07-21T18:09:07.822Z,8.43
2018-07-21T18:11:36.771Z,9.63
2018-07-21T18:14:05.796Z,8.20
2018-07-21T18:16:34.383Z,8.63
2018-07-21T18:19:02.684Z,7.57
2018-07-21T18:21:31.339Z,7.73
2018-07-21T18:24:00.796Z,8.77
2018-07-21T18:26:29.428Z,8.43
2018-07-21T18:28:59.036Z,7.57
2018-07-21T18:31:27.763Z,8.57
2018-07-21T18:33:56.692Z,8.03
2018-07-21T18:36:25.895Z,7.60
2018-07-21T18:38:54.809Z,9.37
2018-07-21T18:41:23.660Z,8.57
2018-07-21T18:43:52.406Z,5.80
2018-07-21T18:46:20.944Z,5.20
2018-07-21T18:48:49.928Z,5.30
2018-07-21T18:51:18.526Z,4.80
2018-07-21T18:53:47.700Z,4.80
2018-07-21T18:56:16.781Z,4.77
2018-07-21T18:58:46.016Z,4.27
2018-07-21T19:01:14.591Z,4.60
2018-07-21T19:03:43.144Z,6.77
2018-07-21T19:06:11.732Z,7.17
2018-07-21T19:08:45.708Z,4.60
2018-07-21T19:11:14.460Z,7.77
2018-07-21T19:13:43.182Z,5.40
2018-07-21T19:16:17.010Z,4.30
2018-07-21T19:18:46.378Z,7.30
2018-07-21T19:21:19.347Z,5.03
2018-07-21T19:23:49.092Z,4.43
2018-07-21T19:26:23.430Z,4.90
2018-07-21T19:28:52.683Z,4.57
2018-07-21T19:31:21.151Z,5.10
2018-07-21T19:33:49.886Z,4.77
2018-07-21T19:36:18.206Z,4.53
2018-07-21T19:38:47.170Z,5.70
2018-07-21T19:41:21.247Z,4.70
2018-07-21T19:43:50.015Z,4.70
2018-07-21T19:46:19.082Z,4.57
2018-07-21T19:48:49.175Z,4.40
2018-07-21T19:51:18.451Z,5.40
2018-07-21T19:53:47.088Z,5.40
2018-07-21T19:56:16.448Z,4.43
2018-07-21T19:58:45.316Z,4.33
2018-07-21T20:01:13.864Z,7.37
2018-07-21T20:03:42.425Z,4.53
2018-07-21T20:06:11.097Z,4.43
2018-07-21T20:08:41.175Z,4.60
2018-07-21T20:11:10.960Z,4.60
2018-07-21T20:13:39.894Z,4.20
2018-07-21T20:16:09.002Z,6.27
2018-07-21T20:18:39.147Z,8.03
2018-07-21T20:21:08.111Z,5.07
2018-07-21T20:23:38.159Z,5.60
2018-07-21T20:26:07.506Z,4.93
2018-07-21T20:28:35.861Z,8.27
2018-07-21T20:31:04.850Z,4.37
2018-07-21T20:33:33.745Z,4.73
2018-07-21T20:36:02.989Z,4.83
2018-07-21T20:38:31.608Z,5.53
2018-07-21T20:41:00.819Z,6.03
2018-07-21T20:43:29.719Z,4.63
2018-07-21T20:45:58.965Z,4.40
2018-07-21T20:48:28.202Z,4.37
2018-07-21T20:50:56.903Z,5.50
2018-07-21T20:53:26.284Z,4.97
2018-07-21T20:55:55.284Z,4.73
2018-07-21T20:58:24.523Z,4.53
2018-07-21T21:00:53.763Z,4.53
2018-07-21T21:03:22.802Z,3.60
2018-07-21T21:05:51.580Z,3.67
2018-07-21T21:08:20.781Z,3.70
2018-07-21T21:10:49.780Z,4.30
2018-07-21T21:13:19.259Z,4.40
2018-07-21T21:15:48.439Z,5.37
2018-07-21T21:18:17.616Z,4.13
2018-07-21T21:20:46.327Z,3.73
2018-07-21T21:23:15.286Z,3.87
2018-07-21T21:25:43.974Z,5.13
2018-07-21T21:28:12.682Z,4.00
2018-07-21T21:30:41.358Z,6.63
2018-07-21T21:33:10.049Z,3.93
2018-07-21T21:35:38.678Z,4.40
2018-07-21T21:38:07.373Z,4.07
2018-07-21T21:40:36.293Z,4.03
2018-07-21T21:43:05.412Z,4.43
2018-07-21T21:45:34.264Z,4.80
2018-07-21T21:48:02.895Z,5.30
2018-07-21T21:50:31.496Z,5.10
2018-07-21T21:53:00.078Z,4.93
2018-07-21T21:55:28.743Z,5.30
2018-07-21T21:57:58.473Z,6.77
2018-07-21T22:00:32.504Z,4.80
2018-07-21T22:03:01.112Z,5.33
2018-07-21T22:05:30.080Z,9.07
2018-07-21T22:07:58.854Z,5.10
2018-07-21T22:10:28.355Z,5.33
2018-07-21T22:12:57.255Z,5.47
2018-07-21T22:15:26.137Z,5.27
2018-07-21T22:17:54.671Z,7.17
2018-07-21T22:20:23.541Z,6.67
2018-07-21T22:22:52.210Z,6.90
2018-07-21T22:25:21.043Z,6.03
2018-07-21T22:27:49.619Z,8.47
2018-07-21T22:30:20.496Z,6.83
2018-07-21T22:32:49.311Z,5.43
2018-07-21T22:35:18.138Z,5.40
2018-07-21T22:37:46.828Z,8.83
2018-07-21T22:40:15.349Z,9.20
2018-07-21T22:42:44.169Z,6.43
2018-07-21T22:45:12.715Z,6.70
2018-07-21T22:47:41.470Z,6.87
2018-07-21T22:50:10.408Z,6.40
2018-07-21T22:52:38.948Z,8.73
2018-07-21T22:55:07.492Z,6.93
2018-07-21T22:57:36.520Z,6.83
2018-07-21T23:00:06.073Z,8.20
2018-07-21T23:02:35.176Z,6.43
2018-07-21T23:05:03.716Z,9.27
2018-07-21T23:07:32.440Z,8.13
2018-07-21T23:10:01.128Z,7.27
2018-07-21T23:12:29.886Z,7.80
2018-07-21T23:14:59.136Z,6.47
2018-07-21T23:17:27.801Z,7.67
2018-07-21T23:19:56.756Z,7.07
2018-07-21T23:22:25.375Z,7.97
2018-07-21T23:24:54.088Z,7.57
2018-07-21T23:27:22.759Z,6.80
2018-07-21T23:29:51.435Z,6.90
2018-07-21T23:32:20.073Z,6.97
2018-07-21T23:34:48.667Z,8.03
2018-07-21T23:37:17.949Z,7.47
2018-07-21T23:39:47.113Z,7.03
2018-07-21T23:42:16.055Z,6.60
2018-07-21T23:44:45.224Z,7.50
2018-07-21T23:47:13.760Z,8.87
2018-07-21T23:49:42.458Z,10.80
2018-07-21T23:52:11.079Z,8.47
2018-07-21T23:54:40.241Z,7.37
2018-07-21T23:57:09.230Z,6.70
2018-07-21T23:59:37.834Z,6.27
